Airfield :
LOGIN :

Register | Disclaimer

   EN    FR    IT 

 










Legend :    VFR   Marginal VFR   IFR   Intensive IFR   Very Intensive IFR
Visi :
Ceiling :
>= 8 km
>= 3000ft
5 to 8 km
1000 to 3000 ft
1500m to 5 km
500 to 1000 ft
800 to 1500m
200 to 500 ft
< 800m
< 200 ft
Symbols :   Thunderstorms  Fog  Heavy snow  Heavy precipitations  Wind > 20 kt
SIGMETs :     Misc.  Thunderstorms  Icing  Turbulence  Mountain Waves  Volcanic Ashes







- Airport Elevation : 408 ft
- IATA code : FKB


EDSB - Karlsruhe Baden Baden

CURRENT METAR :
  • 241520Z 05015KT 9999 SCT025 11/06 Q1024

EXPIRED METARs :
  • 241450Z 04016KT 9000 SCT025 12/07 Q1024
  • 241420Z 04016KT 9000 SCT025 11/06 Q1024
  • 241350Z 04017KT 9999 SCT027 11/06 Q1024
  • 241320Z 04018KT 9000 SCT023 12/07 Q1024
  • 241250Z 05020KT 9000 SCT027 12/07 Q1024

TAF TAF EDSB
Valid from the 24 at 12:00 until the 25 at 12:00 UTC


241100Z 2412/2512 02013KT 9999 FEW040
PROB30
TEMPO 2412/2417 04015G25KT
BECMG 2507/2510 03015G25KT
No reported NOTAMs for that airfield.



MET'MAP, your aeronautical weather chart ! - Copyright ORBIFLY December 2007 - Disclaimer

ORBIFLY MET'MAP TEAM :

Programming & Development : Alexandra Zaïnal
Concept & Development : Baudouin d'Aumeries
Co-Development & Prog : Marc-Olivier Méhu
Technical & hardware support : Manuel Goepfert

Contact : metmap@orbifly.com




SOURCES & CREDITS :

   NOAA